Time;durP1;ratioP1;P1;durP2;ratioP2;P2;SDS_P1;SDS_P2;PMS_P1;PMS_P2;Temp;Humidity;BMP_temperature;BMP_pressure;BME280_temperature;BME280_humidity;BME280_pressure;Samples;Min_cycle;Max_cycle;Signal;HPM_P1;HPM_P2
2023/08/29 01:02:03;;;;;;;1.85;1.13;;;14.90;99.90;;;;;;5028128;28;20107;-53
2023/08/29 01:04:30;;;;;;;2.70;1.90;;;14.90;99.90;;;;;;5030413;28;20132;-51
2023/08/29 01:06:57;;;;;;;4.70;1.50;;;14.90;99.90;;;;;;5043379;28;20033;-51
2023/08/29 01:09:25;;;;;;;0.90;0.90;;;14.90;99.90;;;;;;5041527;28;20478;-50
2023/08/29 01:12:07;;;;;;;1.20;0.95;;;14.90;99.90;;;;;;5052945;28;20032;-51
2023/08/29 01:14:48;;;;;;;2.67;1.35;;;14.90;99.90;;;;;;5053009;28;20088;-51
2023/08/29 01:17:24;;;;;;;2.72;1.73;;;14.90;99.90;;;;;;5052965;28;20391;-52
2023/08/29 01:19:52;;;;;;;2.73;1.77;;;14.80;99.90;;;;;;5053016;28;20068;-51
2023/08/29 01:22:33;;;;;;;2.53;1.63;;;14.80;99.90;;;;;;5052698;28;20533;-51
2023/08/29 01:25:18;;;;;;;3.25;1.80;;;14.80;99.90;;;;;;5033133;28;20052;-52
2023/08/29 01:27:45;;;;;;;1.58;1.48;;;14.80;99.90;;;;;;5052798;28;20481;-50
2023/08/29 01:30:12;;;;;;;2.45;1.60;;;14.80;99.90;;;;;;5052733;28;20043;-51
2023/08/29 01:32:39;;;;;;;3.30;1.52;;;14.70;99.90;;;;;;5052802;28;20111;-52
2023/08/29 01:35:06;;;;;;;1.80;1.38;;;14.70;99.90;;;;;;5052805;28;20091;-51
2023/08/29 01:37:31;;;;;;;1.70;1.02;;;14.70;99.90;;;;;;5052723;28;20040;-51
2023/08/29 01:39:57;;;;;;;1.50;1.40;;;14.60;99.90;;;;;;5050201;28;20017;-52
2023/08/29 01:42:23;;;;;;;1.70;1.60;;;14.60;99.90;;;;;;5051013;28;20028;-52
2023/08/29 01:44:48;;;;;;;2.92;1.35;;;14.60;99.90;;;;;;5052907;28;20075;-47
2023/08/29 01:47:14;;;;;;;2.20;1.35;;;14.60;99.90;;;;;;5033754;28;20021;-48
2023/08/29 01:49:40;;;;;;;1.85;1.27;;;14.60;99.90;;;;;;5051869;28;20036;-50
2023/08/29 02:22:24;;;;;;;2.78;1.40;;;14.40;99.90;;;;;;5031351;28;20036;-50
2023/08/29 02:24:49;;;;;;;2.30;1.77;;;14.40;99.90;;;;;;5052455;28;20033;-51
2023/08/29 02:27:15;;;;;;;2.53;1.50;;;14.40;99.90;;;;;;5052187;28;20068;-49
2023/08/29 02:29:41;;;;;;;1.63;1.52;;;14.40;99.90;;;;;;5052156;28;20451;-51
2023/08/29 02:32:07;;;;;;;2.40;1.80;;;14.40;99.90;;;;;;5044331;28;20095;-46
2023/08/29 02:34:33;;;;;;;7.22;1.77;;;14.40;99.90;;;;;;5052040;28;20048;-43
2023/08/29 02:36:58;;;;;;;2.45;1.58;;;14.40;99.90;;;;;;5051020;28;20021;-42
2023/08/29 02:39:24;;;;;;;1.98;1.83;;;14.40;99.90;;;;;;5051951;28;20028;-40
2023/08/29 02:41:50;;;;;;;1.83;1.73;;;14.40;99.90;;;;;;5049959;28;20029;-41
2023/08/29 02:44:15;;;;;;;2.15;1.58;;;14.30;99.90;;;;;;5052068;28;20114;-41
2023/08/29 02:46:41;;;;;;;1.98;1.77;;;14.30;99.90;;;;;;5051938;28;20111;-39
2023/08/29 02:49:07;;;;;;;1.70;1.35;;;14.30;99.90;;;;;;5051875;28;20389;-40
2023/08/29 02:51:33;;;;;;;2.35;2.10;;;14.30;99.90;;;;;;5051085;28;20478;-41
2023/08/29 02:53:58;;;;;;;3.67;2.22;;;14.30;99.90;;;;;;5050697;28;20500;-43
2023/08/29 02:56:24;;;;;;;2.67;2.00;;;14.30;99.90;;;;;;5055327;28;20074;-42
2023/08/29 02:58:50;;;;;;;9.20;2.67;;;14.30;99.90;;;;;;5055493;28;20500;-41
2023/08/29 03:01:16;;;;;;;1.75;1.60;;;14.30;99.90;;;;;;5054643;28;20029;-41
2023/08/29 03:03:42;;;;;;;3.03;1.83;;;14.20;99.90;;;;;;5054626;28;20037;-41
2023/08/29 03:06:07;;;;;;;2.72;1.90;;;14.20;99.90;;;;;;5055378;28;20037;-41
2023/08/29 03:08:33;;;;;;;4.30;2.70;;;14.20;99.90;;;;;;5053559;28;20475;-39
2023/08/29 03:11:04;;;;;;;4.95;1.80;;;14.10;99.90;;;;;;5053230;28;20040;-41
2023/08/29 03:13:30;;;;;;;5.18;2.28;;;14.10;99.90;;;;;;5055401;28;20154;-40
2023/08/29 03:15:55;;;;;;;2.55;1.95;;;14.10;99.90;;;;;;5055003;28;20017;-39
2023/08/29 03:18:21;;;;;;;5.88;1.77;;;14.10;99.90;;;;;;5054316;28;20481;-39
2023/08/29 03:20:46;;;;;;;3.20;1.73;;;14.10;99.90;;;;;;5054991;28;20025;-41
2023/08/29 03:23:12;;;;;;;8.40;2.60;;;14.00;99.90;;;;;;5053748;28;20057;-46
2023/08/29 03:25:38;;;;;;;19.90;4.40;;;14.10;99.90;;;;;;5054945;28;20385;-40
2023/08/29 03:28:04;;;;;;;19.27;5.95;;;14.00;99.90;;;;;;5053544;28;20163;-44
2023/08/29 03:30:32;;;;;;;21.73;6.00;;;14.00;99.90;;;;;;5054754;28;20033;-42
2023/08/29 03:32:58;;;;;;;34.05;7.95;;;14.00;99.90;;;;;;5053972;28;20060;-41
2023/08/29 03:35:24;;;;;;;26.60;8.70;;;14.00;99.90;;;;;;5054818;28;20064;-40
2023/08/29 03:37:50;;;;;;;37.35;9.90;;;14.00;99.90;;;;;;5053982;28;20040;-39
2023/08/29 03:40:15;;;;;;;29.02;9.35;;;14.00;99.90;;;;;;5053726;28;20481;-44
2023/08/29 03:42:41;;;;;;;25.65;7.10;;;14.00;99.90;;;;;;5052458;28;20037;-48
2023/08/29 03:45:08;;;;;;;27.30;8.77;;;13.90;99.90;;;;;;5037147;28;20030;-49
2023/08/29 03:47:35;;;;;;;29.38;8.82;;;13.90;99.90;;;;;;5053345;28;20033;-53
2023/08/29 03:50:00;;;;;;;18.93;5.97;;;13.90;99.90;;;;;;5053574;28;20025;-51
2023/08/29 03:52:27;;;;;;;17.17;6.53;;;13.90;99.90;;;;;;5053366;28;20398;-50
2023/08/29 03:54:53;;;;;;;14.75;5.57;;;13.90;99.90;;;;;;5053802;28;20473;-52
2023/08/29 03:57:20;;;;;;;20.27;5.57;;;13.90;99.90;;;;;;5053501;28;20013;-50
2023/08/29 03:59:46;;;;;;;17.42;5.68;;;13.90;99.90;;;;;;5054287;28;20033;-52
2023/08/29 04:02:12;;;;;;;15.93;6.07;;;13.90;99.90;;;;;;5051391;28;20535;-52
2023/08/29 04:04:38;;;;;;;17.67;5.53;;;13.90;99.90;;;;;;5054067;28;20037;-51
2023/08/29 04:07:04;;;;;;;19.02;4.50;;;13.90;99.90;;;;;;5052393;28;20033;-51
2023/08/29 04:09:30;;;;;;;14.95;4.78;;;13.90;99.90;;;;;;5052657;28;20044;-42
2023/08/29 04:11:56;;;;;;;11.63;4.50;;;13.90;99.90;;;;;;5053844;28;20033;-39
2023/08/29 04:14:22;;;;;;;8.98;4.10;;;13.90;99.90;;;;;;5054064;28;20029;-40
2023/08/29 04:16:48;;;;;;;17.95;4.45;;;14.00;99.90;;;;;;5052886;28;20017;-40
2023/08/29 04:19:14;;;;;;;17.48;4.85;;;14.00;99.90;;;;;;5053951;28;20489;-40
2023/08/29 04:21:40;;;;;;;13.88;4.50;;;14.00;99.90;;;;;;5052665;28;20048;-43
2023/08/29 04:24:06;;;;;;;12.40;4.20;;;14.00;99.90;;;;;;5053798;28;20223;-41
2023/08/29 04:26:32;;;;;;;8.65;3.58;;;14.00;99.90;;;;;;5053239;28;20421;-40
2023/08/29 04:28:58;;;;;;;9.35;3.38;;;14.00;99.90;;;;;;5053654;28;20082;-40
2023/08/29 04:31:23;;;;;;;7.38;2.88;;;14.00;99.90;;;;;;5051788;28;20493;-50
2023/08/29 04:33:49;;;;;;;13.43;2.97;;;14.00;99.90;;;;;;5052404;28;20033;-45
2023/08/29 04:36:18;;;;;;;9.07;3.58;;;14.00;99.90;;;;;;5053293;28;20048;-40
2023/08/29 04:38:50;;;;;;;8.00;3.80;;;14.10;99.90;;;;;;5052034;28;20124;-44
2023/08/29 04:41:16;;;;;;;8.07;2.88;;;14.10;99.90;;;;;;5053288;28;20569;-39
2023/08/29 04:43:42;;;;;;;4.88;2.28;;;14.10;99.90;;;;;;5052662;28;20116;-42
2023/08/29 04:46:07;;;;;;;5.55;2.83;;;14.10;99.90;;;;;;5053495;28;20039;-43
2023/08/29 04:48:34;;;;;;;7.72;3.30;;;14.10;99.90;;;;;;5035539;28;20087;-43
2023/08/29 04:51:00;;;;;;;12.82;3.05;;;14.10;99.90;;;;;;5052596;28;20104;-41
2023/08/29 04:53:25;;;;;;;10.00;2.70;;;14.10;99.90;;;;;;5051394;28;20120;-41
2023/08/29 04:56:02;;;;;;;5.82;2.58;;;14.00;99.90;;;;;;5051837;28;20562;-38
2023/08/29 04:58:29;;;;;;;4.43;1.70;;;14.10;99.90;;;;;;5033397;28;20524;-40
2023/08/29 05:00:56;;;;;;;2.65;1.80;;;14.10;99.90;;;;;;5049306;28;20031;-45
2023/08/29 05:03:21;;;;;;;3.45;2.35;;;14.10;99.90;;;;;;5053196;28;20477;-42
2023/08/29 05:05:48;;;;;;;2.55;1.83;;;14.10;99.90;;;;;;5053336;28;20036;-40
2023/08/29 05:08:14;;;;;;;5.95;2.28;;;14.10;99.90;;;;;;5049493;28;20032;-42
2023/08/29 05:10:41;;;;;;;3.65;1.83;;;14.10;99.90;;;;;;5051798;28;20029;-42
2023/08/29 05:13:06;;;;;;;3.03;2.13;;;14.10;99.90;;;;;;5052955;28;20029;-40
2023/08/29 05:15:32;;;;;;;5.20;2.20;;;14.10;99.90;;;;;;5036891;28;20028;-40
2023/08/29 05:17:58;;;;;;;5.13;1.95;;;14.20;99.90;;;;;;5072354;28;20028;-42
2023/08/29 05:20:24;;;;;;;3.30;2.15;;;14.20;99.90;;;;;;5058859;28;20179;-42
2023/08/29 05:22:50;;;;;;;5.55;2.22;;;14.20;99.90;;;;;;5050366;28;20048;-42
2023/08/29 05:25:16;;;;;;;3.80;2.22;;;14.30;99.90;;;;;;5050860;28;20028;-39
2023/08/29 05:27:41;;;;;;;5.72;2.85;;;14.30;99.90;;;;;;5052603;28;20021;-47
2023/08/29 05:30:08;;;;;;;3.25;2.40;;;14.40;99.90;;;;;;5051952;28;20029;-52
2023/08/29 05:32:35;;;;;;;5.43;3.00;;;14.50;99.90;;;;;;5052670;28;20021;-50
2023/08/29 05:35:02;;;;;;;3.47;2.28;;;14.50;99.90;;;;;;5051530;28;20101;-41
2023/08/29 05:37:29;;;;;;;2.90;2.22;;;14.60;99.90;;;;;;5052098;28;20053;-40
2023/08/29 05:39:54;;;;;;;6.47;2.60;;;14.70;99.90;;;;;;5049199;28;20055;-41
2023/08/29 05:42:20;;;;;;;7.13;2.63;;;14.80;99.90;;;;;;5049124;28;20021;-42
2023/08/29 05:44:46;;;;;;;5.40;2.30;;;14.80;99.90;;;;;;5052578;28;20017;-43
2023/08/29 05:47:11;;;;;;;3.85;2.70;;;14.90;99.90;;;;;;5052445;28;20525;-42
2023/08/29 05:49:37;;;;;;;3.17;2.45;;;15.00;99.90;;;;;;5052373;28;20023;-42
2023/08/29 05:52:03;;;;;;;3.42;2.40;;;15.00;99.90;;;;;;5052473;28;20397;-42
2023/08/29 05:54:29;;;;;;;2.65;1.95;;;15.10;99.90;;;;;;5045753;28;20025;-43
2023/08/29 05:56:55;;;;;;;2.90;2.30;;;15.20;99.90;;;;;;5052282;28;20029;-41
2023/08/29 05:59:21;;;;;;;2.95;1.80;;;15.30;99.90;;;;;;5034619;28;20036;-39
2023/08/29 06:01:47;;;;;;;4.32;3.40;;;15.30;99.90;;;;;;5052307;28;20036;-41
2023/08/29 06:04:12;;;;;;;4.88;2.40;;;15.40;99.90;;;;;;5052695;28;20029;-42
2023/08/29 06:06:39;;;;;;;6.78;2.42;;;15.50;99.90;;;;;;5052449;28;20083;-43
2023/08/29 06:09:08;;;;;;;4.70;1.63;;;15.60;99.90;;;;;;5050536;28;20386;-45
2023/08/29 06:11:34;;;;;;;2.95;2.42;;;15.70;99.90;;;;;;5040237;28;20298;-39
2023/08/29 06:14:01;;;;;;;2.97;2.53;;;15.80;99.90;;;;;;5052309;28;20036;-40
2023/08/29 06:16:26;;;;;;;7.50;2.42;;;15.80;99.90;;;;;;5052107;28;20135;-42
2023/08/29 06:18:52;;;;;;;3.78;2.30;;;15.90;99.90;;;;;;5052134;28;20039;-41
2023/08/29 06:21:19;;;;;;;3.28;2.33;;;15.90;99.90;;;;;;5051885;28;20428;-42
2023/08/29 06:23:44;;;;;;;9.27;2.40;;;16.00;99.90;;;;;;5048204;28;20052;-41
2023/08/29 06:26:10;;;;;;;5.50;2.53;;;16.00;99.90;;;;;;5050792;28;20025;-44
2023/08/29 06:28:36;;;;;;;3.90;2.72;;;16.10;99.90;;;;;;5053709;28;20059;-45
2023/08/29 06:31:08;;;;;;;16.50;3.20;;;16.10;99.90;;;;;;5055938;28;20672;-45
2023/08/29 06:33:37;;;;;;;5.18;2.78;;;16.10;99.90;;;;;;5056152;28;20048;-40
2023/08/29 06:36:03;;;;;;;5.28;2.42;;;16.20;99.90;;;;;;5055799;28;20491;-41
2023/08/29 06:38:30;;;;;;;8.35;3.00;;;16.20;99.90;;;;;;5054469;28;20086;-42
2023/08/29 06:40:56;;;;;;;5.28;2.15;;;16.20;99.90;;;;;;5050012;28;20033;-44
2023/08/29 06:43:23;;;;;;;4.22;1.75;;;16.20;99.90;;;;;;5056142;28;20063;-43
2023/08/29 06:45:49;;;;;;;3.00;2.15;;;16.30;99.90;;;;;;5050860;28;20033;-42
2023/08/29 06:48:14;;;;;;;4.10;2.33;;;16.40;99.90;;;;;;5047486;28;20047;-40
2023/08/29 06:50:40;;;;;;;3.00;2.20;;;16.40;99.90;;;;;;5044443;28;20095;-44
2023/08/29 06:53:06;;;;;;;4.72;1.98;;;16.50;99.90;;;;;;5053750;28;20359;-40
2023/08/29 06:55:34;;;;;;;3.45;2.10;;;16.60;99.90;;;;;;5049355;28;20025;-41
2023/08/29 06:58:00;;;;;;;4.40;1.95;;;16.60;99.90;;;;;;5052895;28;20130;-40
2023/08/29 07:00:26;;;;;;;5.35;2.72;;;16.60;99.90;;;;;;5046098;28;20024;-41
2023/08/29 07:02:52;;;;;;;3.60;2.20;;;16.60;99.90;;;;;;5050891;28;20396;-41
2023/08/29 07:05:17;;;;;;;2.20;1.70;;;16.60;99.90;;;;;;5053781;28;20071;-43
2023/08/29 07:07:43;;;;;;;4.93;1.80;;;16.70;99.90;;;;;;5049927;28;20033;-42
2023/08/29 07:10:09;;;;;;;4.30;1.65;;;16.70;99.90;;;;;;5054458;28;20386;-41
2023/08/29 07:12:35;;;;;;;3.33;1.92;;;16.80;99.90;;;;;;5055238;28;20079;-42
2023/08/29 07:15:01;;;;;;;2.17;1.98;;;16.80;99.90;;;;;;5055151;28;20467;-41
2023/08/29 07:17:27;;;;;;;5.78;1.90;;;16.80;99.90;;;;;;5054765;28;20493;-45
2023/08/29 07:19:53;;;;;;;2.17;1.58;;;16.90;99.90;;;;;;5034644;28;20040;-43
2023/08/29 07:22:19;;;;;;;2.47;1.73;;;17.00;99.90;;;;;;5053739;28;20474;-41
2023/08/29 07:24:44;;;;;;;4.97;1.67;;;17.10;99.90;;;;;;5051486;28;20048;-41
2023/08/29 07:27:10;;;;;;;3.90;1.98;;;17.10;99.90;;;;;;5050132;28;20028;-44
2023/08/29 07:29:36;;;;;;;4.78;1.30;;;17.10;99.90;;;;;;5053204;28;20033;-43
2023/08/29 07:32:02;;;;;;;6.25;1.60;;;17.20;99.90;;;;;;5054866;28;20033;-41
2023/08/29 07:34:28;;;;;;;1.90;1.20;;;17.20;99.90;;;;;;5055035;28;20025;-46
2023/08/29 07:36:53;;;;;;;4.18;1.67;;;17.30;99.90;;;;;;5054040;28;20017;-43
2023/08/29 07:39:20;;;;;;;1.77;1.10;;;17.30;99.90;;;;;;5054057;28;20024;-45
2023/08/29 07:41:46;;;;;;;1.45;1.35;;;17.40;99.90;;;;;;5054675;28;20108;-49
2023/08/29 07:44:11;;;;;;;2.60;1.40;;;17.50;99.90;;;;;;5054770;28;20512;-42
2023/08/29 07:46:37;;;;;;;3.03;1.20;;;17.70;99.90;;;;;;5050870;28;20116;-41
2023/08/29 07:49:09;;;;;;;3.58;1.92;;;17.70;99.90;;;;;;5050034;28;20021;-42
2023/08/29 07:51:35;;;;;;;1.88;1.65;;;17.80;99.90;;;;;;5036231;28;20075;-40
2023/08/29 07:54:01;;;;;;;8.50;3.15;;;17.80;99.90;;;;;;5053872;28;20025;-42
2023/08/29 07:56:27;;;;;;;3.28;1.40;;;17.80;99.90;;;;;;5036506;28;20025;-47
2023/08/29 07:58:52;;;;;;;1.88;1.05;;;17.90;99.90;;;;;;5054383;28;20029;-40
2023/08/29 08:01:18;;;;;;;1.38;1.27;;;18.00;99.90;;;;;;5054336;28;20029;-43
2023/08/29 08:03:44;;;;;;;1.50;1.40;;;18.00;99.90;;;;;;5036347;28;20028;-44
2023/08/29 08:06:10;;;;;;;1.52;1.42;;;18.10;99.90;;;;;;5054210;28;20100;-44
2023/08/29 08:08:35;;;;;;;2.00;1.10;;;18.20;99.90;;;;;;5054228;28;20497;-41
2023/08/29 08:11:01;;;;;;;2.08;1.40;;;18.30;99.90;;;;;;5053368;28;20013;-41
2023/08/29 08:13:28;;;;;;;2.05;1.27;;;18.30;99.90;;;;;;5051602;28;20105;-45
2023/08/29 08:15:53;;;;;;;2.83;1.23;;;18.30;99.90;;;;;;5043852;28;20410;-41
2023/08/29 08:18:19;;;;;;;1.48;1.33;;;18.30;99.90;;;;;;5053552;28;20192;-42
2023/08/29 08:20:45;;;;;;;3.58;1.58;;;18.40;99.90;;;;;;5048667;28;20029;-43
2023/08/29 08:23:10;;;;;;;1.88;1.38;;;18.50;99.90;;;;;;5052362;28;20033;-44
2023/08/29 08:25:36;;;;;;;1.63;1.23;;;18.60;99.90;;;;;;5051863;28;20040;-43
2023/08/29 08:28:02;;;;;;;1.50;1.40;;;18.70;99.90;;;;;;5047287;28;20041;-41
2023/08/29 08:30:28;;;;;;;2.88;1.17;;;18.80;99.90;;;;;;5045120;28;20076;-41
2023/08/29 08:32:54;;;;;;;1.27;1.15;;;18.70;99.90;;;;;;5049727;28;20048;-46
2023/08/29 08:35:20;;;;;;;3.15;2.00;;;18.90;99.90;;;;;;5053380;28;20049;-46
2023/08/29 08:37:46;;;;;;;1.38;1.27;;;19.00;99.90;;;;;;5053638;28;20060;-43
2023/08/29 08:40:14;;;;;;;1.58;1.40;;;19.10;99.90;;;;;;5053594;28;20489;-53
2023/08/29 08:42:40;;;;;;;1.50;1.27;;;19.20;99.90;;;;;;5053542;28;20025;-54
2023/08/29 08:45:07;;;;;;;3.22;1.67;;;19.20;99.90;;;;;;5052783;28;20543;-52
2023/08/29 08:47:36;;;;;;;10.20;1.27;;;19.10;99.90;;;;;;5053410;28;20025;-53
2023/08/29 08:50:04;;;;;;;1.85;1.50;;;19.30;99.90;;;;;;5053326;28;20029;-50
2023/08/29 08:52:34;;;;;;;7.40;1.83;;;19.40;99.90;;;;;;5053317;28;20484;-51
2023/08/29 08:55:00;;;;;;;2.63;1.50;;;19.50;99.90;;;;;;5044642;28;20021;-51
2023/08/29 08:57:25;;;;;;;2.28;1.70;;;19.60;99.90;;;;;;5052574;28;20075;-51
2023/08/29 08:59:51;;;;;;;3.47;1.10;;;19.70;99.90;;;;;;5053192;28;20485;-50
2023/08/29 09:02:18;;;;;;;5.93;1.52;;;19.80;99.90;;;;;;5052205;28;20090;-49
2023/08/29 09:04:44;;;;;;;3.22;1.13;;;19.80;99.90;;;;;;5053126;28;20021;-50
2023/08/29 09:07:09;;;;;;;5.60;1.77;;;19.90;99.90;;;;;;5052849;28;20036;-52
2023/08/29 09:09:35;;;;;;;1.45;1.35;;;19.90;99.90;;;;;;5052841;28;20155;-51
2023/08/29 09:12:01;;;;;;;1.48;1.38;;;19.90;99.90;;;;;;5053255;28;20469;-42
2023/08/29 09:14:27;;;;;;;1.50;1.40;;;19.90;99.90;;;;;;5052909;28;20521;-42
2023/08/29 09:16:57;;;;;;;3.03;1.75;;;19.90;99.90;;;;;;5052453;28;20037;-42
2023/08/29 09:19:24;;;;;;;1.83;1.40;;;20.10;99.90;;;;;;5051838;28;20028;-42
2023/08/29 09:21:50;;;;;;;1.27;1.17;;;20.30;99.90;;;;;;5051426;28;20036;-42
2023/08/29 09:24:33;;;;;;;1.85;1.60;;;20.50;99.90;;;;;;5051209;28;20044;-42
2023/08/29 09:27:00;;;;;;;3.05;1.58;;;20.60;99.90;;;;;;5052807;28;20134;-41
2023/08/29 09:29:27;;;;;;;2.70;1.08;;;20.60;99.90;;;;;;5042864;28;20068;-42
2023/08/29 09:31:57;;;;;;;1.83;1.33;;;20.70;99.90;;;;;;5050015;28;20025;-40
2023/08/29 09:34:30;;;;;;;2.22;1.08;;;20.80;99.90;;;;;;5051763;28;20021;-43
2023/08/29 09:37:02;;;;;;;1.27;1.08;;;20.70;99.90;;;;;;5051406;28;20466;-45
2023/08/29 09:39:28;;;;;;;3.05;1.10;;;20.60;99.90;;;;;;5048592;28;20105;-41
2023/08/29 09:42:02;;;;;;;2.45;1.35;;;20.60;99.90;;;;;;5048952;28;20057;-40
2023/08/29 09:44:29;;;;;;;1.50;1.33;;;20.70;99.90;;;;;;5045380;28;20079;-43
2023/08/29 09:46:55;;;;;;;14.77;1.67;;;20.90;99.90;;;;;;5046464;28;20382;-42
2023/08/29 09:49:21;;;;;;;1.70;1.55;;;21.30;99.90;;;;;;5052405;28;20021;-51
2023/08/29 09:51:48;;;;;;;5.68;2.22;;;21.40;99.90;;;;;;5052495;28;20074;-53
2023/08/29 09:54:18;;;;;;;4.03;1.75;;;21.40;99.90;;;;;;5051807;28;20052;-48
2023/08/29 09:56:44;;;;;;;2.88;2.05;;;21.40;99.90;;;;;;5055527;28;20111;-51
2023/08/29 09:59:13;;;;;;;3.50;1.45;;;21.50;99.90;;;;;;5072531;28;20108;-54
2023/08/29 10:01:43;;;;;;;1.30;1.20;;;21.60;99.90;;;;;;5052474;28;20112;-51
2023/08/29 10:04:14;;;;;;;1.50;1.40;;;21.40;99.90;;;;;;5055732;28;20059;-48
2023/08/29 10:06:41;;;;;;;2.55;2.00;;;21.20;99.90;;;;;;5056570;28;20482;-50
2023/08/29 10:09:06;;;;;;;2.88;1.52;;;21.10;99.90;;;;;;5056363;28;20485;-53
2023/08/29 10:11:33;;;;;;;2.08;1.88;;;20.80;99.90;;;;;;5055580;28;20032;-49
2023/08/29 10:13:59;;;;;;;2.53;2.33;;;20.80;99.90;;;;;;5056349;28;20381;-50
2023/08/29 10:16:26;;;;;;;3.08;2.55;;;20.70;99.90;;;;;;5056384;28;20013;-49
2023/08/29 10:18:55;;;;;;;3.97;3.67;;;20.70;99.90;;;;;;5056552;28;20017;-50
2023/08/29 10:21:21;;;;;;;3.97;3.67;;;20.90;99.90;;;;;;5056119;28;20393;-51
2023/08/29 10:23:49;;;;;;;4.85;3.70;;;21.20;99.90;;;;;;5055962;28;20128;-51
2023/08/29 10:26:17;;;;;;;3.72;3.30;;;21.50;99.90;;;;;;5056051;28;20037;-48
2023/08/29 10:28:44;;;;;;;4.25;3.67;;;21.80;99.90;;;;;;5055713;28;20496;-49
2023/08/29 10:31:10;;;;;;;4.97;4.03;;;21.90;99.90;;;;;;5056376;28;20013;-50
2023/08/29 10:33:36;;;;;;;3.73;3.47;;;21.90;99.90;;;;;;5056051;28;20019;-49
2023/08/29 10:36:03;;;;;;;7.13;4.30;;;21.70;99.90;;;;;;5055962;28;20504;-50
2023/08/29 10:38:30;;;;;;;5.65;3.92;;;21.60;99.90;;;;;;5055803;28;20151;-52
2023/08/29 10:41:06;;;;;;;4.82;4.40;;;21.40;99.90;;;;;;5038088;28;20496;-51
2023/08/29 10:43:32;;;;;;;5.53;3.30;;;21.30;99.90;;;;;;5055057;28;20061;-50
2023/08/29 10:46:14;;;;;;;3.70;3.40;;;21.20;99.90;;;;;;5055857;28;20031;-41
2023/08/29 10:48:39;;;;;;;3.63;3.25;;;21.10;99.90;;;;;;5055733;28;20059;-41
2023/08/29 10:51:08;;;;;;;4.55;4.00;;;20.90;99.90;;;;;;5055444;28;20474;-39
2023/08/29 10:53:38;;;;;;;4.05;3.15;;;20.80;99.90;;;;;;5055370;28;20035;-40
2023/08/29 10:56:07;;;;;;;5.93;4.07;;;20.70;99.90;;;;;;5046895;28;20021;-40
2023/08/29 10:58:39;;;;;;;3.20;2.90;;;20.70;99.90;;;;;;5050533;28;20055;-41
2023/08/29 11:01:06;;;;;;;4.22;2.95;;;20.70;99.90;;;;;;5051186;28;20025;-44
2023/08/29 11:03:51;;;;;;;4.97;4.40;;;20.70;99.90;;;;;;5054024;28;20224;-50
2023/08/29 11:06:22;;;;;;;4.63;4.18;;;20.60;99.90;;;;;;5053109;28;20021;-46
2023/08/29 11:08:48;;;;;;;4.35;3.90;;;20.60;99.90;;;;;;5054356;28;20029;-54
2023/08/29 11:11:20;;;;;;;3.72;3.20;;;20.70;99.90;;;;;;5049224;28;20535;-48
2023/08/29 11:14:00;;;;;;;4.50;4.05;;;21.00;99.90;;;;;;5054100;28;20064;-52
2023/08/29 11:16:30;;;;;;;5.72;4.32;;;21.10;99.90;;;;;;5039731;28;20041;-53
2023/08/29 11:19:13;;;;;;;5.10;4.47;;;21.10;99.90;;;;;;5054049;28;20105;-48
2023/08/29 11:21:48;;;;;;;4.57;4.18;;;21.00;99.90;;;;;;5055055;28;20029;-54
2023/08/29 11:24:14;;;;;;;9.02;3.95;;;21.00;99.90;;;;;;5036320;28;20506;-50
2023/08/29 11:26:43;;;;;;;4.57;3.25;;;20.90;99.90;;;;;;5049455;28;20116;-48
2023/08/29 11:29:08;;;;;;;3.85;2.97;;;20.90;99.90;;;;;;5054337;28;20036;-50
2023/08/29 11:31:42;;;;;;;5.13;3.08;;;20.90;99.90;;;;;;5054633;28;20025;-53
2023/08/29 11:34:20;;;;;;;4.97;3.17;;;20.90;99.90;;;;;;5054811;28;20095;-49
2023/08/29 11:36:48;;;;;;;7.40;2.67;;;20.90;99.90;;;;;;5054772;28;20017;-51
2023/08/29 11:39:16;;;;;;;6.85;2.90;;;21.00;99.90;;;;;;5050624;28;20449;-52
2023/08/29 11:41:43;;;;;;;3.35;3.05;;;21.00;99.90;;;;;;5054513;28;20668;-50
2023/08/29 11:44:10;;;;;;;4.88;3.63;;;21.10;99.90;;;;;;5051614;28;20416;-51
2023/08/29 11:46:36;;;;;;;3.78;3.47;;;21.20;99.90;;;;;;5054747;28;20103;-51
2023/08/29 11:49:12;;;;;;;5.43;3.10;;;21.50;99.90;;;;;;5053532;28;20021;-41
2023/08/29 11:51:38;;;;;;;5.55;4.30;;;21.80;99.90;;;;;;5052732;28;20070;-38
2023/08/29 11:54:04;;;;;;;5.80;4.40;;;21.90;99.90;;;;;;5054695;28;20021;-40
2023/08/29 11:56:30;;;;;;;4.32;3.25;;;22.00;99.90;;;;;;5050807;28;20028;-41
2023/08/29 11:59:00;;;;;;;6.38;4.75;;;21.90;99.90;;;;;;5048325;28;20094;-40
2023/08/29 12:01:26;;;;;;;5.65;4.88;;;21.90;99.90;;;;;;5046462;28;20021;-40
2023/08/29 12:03:53;;;;;;;5.55;4.82;;;22.00;99.90;;;;;;5054074;28;20088;-41
2023/08/29 12:06:19;;;;;;;8.30;5.10;;;22.00;99.90;;;;;;5055052;28;20109;-40
2023/08/29 12:08:45;;;;;;;5.00;4.60;;;21.80;99.90;;;;;;5053069;28;20021;-44
2023/08/29 12:11:15;;;;;;;6.88;4.32;;;21.60;99.90;;;;;;5054187;28;20107;-41
2023/08/29 12:13:56;;;;;;;4.07;3.75;;;21.30;99.90;;;;;;5053948;28;20469;-41
2023/08/29 12:16:22;;;;;;;5.85;4.50;;;21.10;99.90;;;;;;5054161;28;20029;-41
2023/08/29 12:18:48;;;;;;;4.75;4.15;;;21.00;99.90;;;;;;5053989;28;20083;-38
2023/08/29 12:21:20;;;;;;;4.50;4.10;;;20.90;99.90;;;;;;5054030;28;20017;-39
2023/08/29 12:23:46;;;;;;;6.18;4.93;;;20.80;99.90;;;;;;5053612;28;20540;-42
2023/08/29 12:26:13;;;;;;;7.40;5.18;;;20.60;99.90;;;;;;5048126;28;20044;-41
2023/08/29 12:28:39;;;;;;;7.60;4.60;;;20.60;99.90;;;;;;5050499;28;20025;-41
2023/08/29 12:31:07;;;;;;;6.28;4.90;;;20.50;99.90;;;;;;5053438;28;20119;-42
2023/08/29 12:33:34;;;;;;;6.22;4.18;;;20.40;99.90;;;;;;5052320;28;20481;-46
2023/08/29 12:35:59;;;;;;;7.22;4.22;;;20.30;99.90;;;;;;5052560;28;20025;-43
2023/08/29 12:38:26;;;;;;;4.13;3.72;;;20.20;99.90;;;;;;5052863;28;20040;-41
2023/08/29 12:40:52;;;;;;;6.25;5.35;;;20.10;99.90;;;;;;5032278;28;20063;-46
2023/08/29 12:43:19;;;;;;;6.47;4.88;;;20.10;99.90;;;;;;5047222;28;20079;-42
2023/08/29 12:45:45;;;;;;;6.50;5.35;;;20.10;99.90;;;;;;5051226;28;20422;-42
2023/08/29 12:48:13;;;;;;;9.05;6.15;;;20.10;99.90;;;;;;5045921;28;20588;-45
2023/08/29 12:50:38;;;;;;;6.78;4.13;;;20.20;99.90;;;;;;5047319;28;20031;-39
2023/08/29 12:53:04;;;;;;;6.85;4.60;;;20.10;99.90;;;;;;5048228;28;20021;-41
2023/08/29 12:55:30;;;;;;;8.00;4.35;;;20.10;99.90;;;;;;5053471;28;20013;-44
2023/08/29 12:57:55;;;;;;;10.75;4.75;;;20.20;99.90;;;;;;5052338;28;20029;-45
2023/08/29 13:00:21;;;;;;;4.18;3.78;;;20.20;99.90;;;;;;5051847;28;20021;-44
2023/08/29 13:02:47;;;;;;;3.78;3.47;;;20.20;99.90;;;;;;5053235;28;20024;-40
2023/08/29 13:05:13;;;;;;;4.88;3.50;;;20.20;99.90;;;;;;5053226;28;20017;-42
2023/08/29 13:07:40;;;;;;;5.50;3.90;;;20.20;99.90;;;;;;5044723;28;20508;-39
2023/08/29 13:10:07;;;;;;;5.88;4.00;;;20.20;99.90;;;;;;5046273;28;20025;-42
2023/08/29 13:12:33;;;;;;;5.57;4.67;;;20.10;99.90;;;;;;5049225;28;20485;-41
2023/08/29 13:14:59;;;;;;;4.95;4.50;;;20.10;99.90;;;;;;5047418;28;20025;-44
2023/08/29 13:17:25;;;;;;;5.22;4.25;;;20.00;99.90;;;;;;5044880;28;20398;-42
2023/08/29 13:19:50;;;;;;;6.72;5.65;;;19.90;99.90;;;;;;5021355;28;20167;-42
2023/08/29 13:22:16;;;;;;;11.73;5.85;;;19.80;99.90;;;;;;5051607;28;20032;-37
2023/08/29 13:24:42;;;;;;;12.15;5.30;;;19.80;99.90;;;;;;5051647;28;20045;-39
2023/08/29 13:27:08;;;;;;;7.13;5.43;;;19.60;99.90;;;;;;5051930;28;20025;-39
2023/08/29 13:29:34;;;;;;;5.00;4.43;;;19.30;99.90;;;;;;5052391;28;20035;-40
2023/08/29 13:32:00;;;;;;;7.28;4.50;;;19.00;99.90;;;;;;5048936;28;20035;-38
2023/08/29 13:34:27;;;;;;;5.60;3.22;;;18.70;99.90;;;;;;5050703;28;20485;-39
2023/08/29 13:36:52;;;;;;;2.85;2.53;;;18.40;99.90;;;;;;5052436;28;20432;-41
2023/08/29 13:39:18;;;;;;;8.93;2.63;;;18.20;99.90;;;;;;5050161;28;20021;-38
2023/08/29 13:41:44;;;;;;;2.45;1.45;;;18.00;99.90;;;;;;5049604;28;20041;-52
2023/08/29 13:44:10;;;;;;;2.38;1.65;;;17.60;99.90;;;;;;5052472;28;20025;-53
2023/08/29 13:46:36;;;;;;;2.10;1.33;;;17.40;99.90;;;;;;5034715;28;20100;-53
2023/08/29 13:49:02;;;;;;;2.72;1.40;;;17.30;99.90;;;;;;5052499;28;20076;-53
2023/08/29 13:51:28;;;;;;;3.13;1.70;;;17.30;99.90;;;;;;5052746;28;20112;-51
2023/08/29 13:53:54;;;;;;;3.22;1.73;;;17.10;99.90;;;;;;5052781;28;20525;-51
2023/08/29 13:56:20;;;;;;;4.93;1.90;;;16.90;99.90;;;;;;5052618;28;20032;-38
2023/08/29 13:58:45;;;;;;;5.50;1.75;;;16.90;99.90;;;;;;5052513;28;20033;-40
2023/08/29 14:01:12;;;;;;;2.63;1.60;;;16.90;99.90;;;;;;5052516;28;20394;-40
2023/08/29 14:03:37;;;;;;;2.25;1.65;;;16.90;99.90;;;;;;5052504;28;20033;-50
2023/08/29 14:06:03;;;;;;;4.22;1.65;;;17.00;99.90;;;;;;5052705;28;20437;-50
2023/08/29 14:08:29;;;;;;;2.65;1.65;;;17.00;99.90;;;;;;5052128;28;20033;-50
2023/08/29 14:11:03;;;;;;;5.25;1.42;;;17.00;99.90;;;;;;5052389;28;20405;-51
2023/08/29 14:13:29;;;;;;;5.93;1.33;;;17.00;99.90;;;;;;5052355;28;20032;-52
2023/08/29 14:16:02;;;;;;;3.95;1.95;;;17.10;99.90;;;;;;5052347;28;20116;-49